createdAt,value
2018-05-31T00:00:31.068Z,25.20
2018-05-31T00:02:59.342Z,25.20
2018-05-31T00:05:27.616Z,25.20
2018-05-31T00:07:55.902Z,25.20
2018-05-31T00:10:24.211Z,25.20
2018-05-31T00:12:52.482Z,25.20
2018-05-31T00:15:20.768Z,25.20
2018-05-31T00:17:49.050Z,25.20
2018-05-31T00:20:17.338Z,25.20
2018-05-31T00:22:45.631Z,25.10
2018-05-31T00:25:13.994Z,25.10
2018-05-31T00:27:42.999Z,25.10
2018-05-31T00:30:11.288Z,25.10
2018-05-31T00:32:39.578Z,25.10
2018-05-31T00:35:07.862Z,25.10
2018-05-31T00:37:36.140Z,25.10
2018-05-31T00:40:04.438Z,25.10
2018-05-31T00:42:33.504Z,25.10
2018-05-31T00:45:01.798Z,25.10
2018-05-31T00:47:30.891Z,25.10
2018-05-31T00:49:59.176Z,25.10
2018-05-31T00:52:28.231Z,25.10
2018-05-31T00:54:56.514Z,25.10
2018-05-31T00:57:24.807Z,25.10
2018-05-31T00:59:53.103Z,25.10
2018-05-31T01:02:21.430Z,25.10
2018-05-31T01:04:49.711Z,25.10
2018-05-31T01:07:18.013Z,25.10
2018-05-31T01:09:46.312Z,25.10
2018-05-31T01:12:14.607Z,25.10
2018-05-31T01:14:42.893Z,25.10
2018-05-31T01:17:11.201Z,25.10
2018-05-31T01:19:39.480Z,25.10
2018-05-31T01:22:07.772Z,25.10
2018-05-31T01:24:36.062Z,25.10
2018-05-31T01:27:04.345Z,25.10
2018-05-31T01:29:32.641Z,25.10
2018-05-31T01:32:01.699Z,25.10
2018-05-31T01:34:29.999Z,25.10
2018-05-31T01:36:59.046Z,25.10
2018-05-31T01:39:27.313Z,25.10
2018-05-31T01:41:55.629Z,25.10
2018-05-31T01:44:23.915Z,25.00
2018-05-31T01:46:52.202Z,25.10
2018-05-31T01:49:21.242Z,25.00
2018-05-31T01:51:49.556Z,25.00
2018-05-31T01:54:17.837Z,25.00
2018-05-31T01:56:46.120Z,25.00
2018-05-31T01:59:14.414Z,25.00
2018-05-31T02:01:43.469Z,25.00
2018-05-31T02:04:11.871Z,25.00
2018-05-31T02:06:40.150Z,25.00
2018-05-31T02:09:09.210Z,25.00
2018-05-31T02:11:37.576Z,25.00
2018-05-31T02:14:05.891Z,25.00
2018-05-31T02:16:34.171Z,25.00
2018-05-31T02:19:02.478Z,25.00
2018-05-31T02:21:30.766Z,25.00
2018-05-31T02:23:59.054Z,25.00
2018-05-31T02:26:27.339Z,25.00
2018-05-31T02:28:55.655Z,25.00
2018-05-31T02:31:23.930Z,25.00
2018-05-31T02:33:52.228Z,25.00
2018-05-31T02:36:20.531Z,25.00
2018-05-31T02:38:48.822Z,25.00
2018-05-31T02:41:17.092Z,24.90
2018-05-31T02:43:45.416Z,24.90
2018-05-31T02:46:13.711Z,24.90
2018-05-31T02:48:41.997Z,24.90
2018-05-31T02:51:11.042Z,24.90
2018-05-31T02:53:39.546Z,24.90
2018-05-31T02:56:07.855Z,24.90
2018-05-31T02:58:36.168Z,24.90
2018-05-31T03:01:04.463Z,24.90
2018-05-31T03:03:32.743Z,24.90
2018-05-31T03:06:01.053Z,24.90
2018-05-31T03:08:29.425Z,24.90
2018-05-31T03:10:57.725Z,24.90
2018-05-31T03:13:26.228Z,24.90
2018-05-31T03:15:54.490Z,24.90
2018-05-31T03:18:22.810Z,24.90
2018-05-31T03:20:51.109Z,24.90
2018-05-31T03:23:19.397Z,24.90
2018-05-31T03:25:48.464Z,24.90
2018-05-31T03:28:16.748Z,24.90
2018-05-31T03:30:45.068Z,24.90
2018-05-31T03:33:14.128Z,25.00
2018-05-31T03:35:42.413Z,24.90
2018-05-31T03:38:10.710Z,24.90
2018-05-31T03:40:38.978Z,24.90
2018-05-31T03:43:07.344Z,24.90
2018-05-31T03:45:35.651Z,24.70
2018-05-31T03:48:04.700Z,24.50
2018-05-31T03:50:33.008Z,24.50
2018-05-31T03:53:01.294Z,24.50
2018-05-31T03:55:29.586Z,24.40
2018-05-31T03:57:57.879Z,24.40
2018-05-31T04:00:26.159Z,24.40
2018-05-31T04:02:54.466Z,24.40
2018-05-31T04:05:22.746Z,24.40
2018-05-31T04:07:51.054Z,24.30
2018-05-31T04:10:19.347Z,24.20
2018-05-31T04:12:47.659Z,24.10
2018-05-31T04:15:15.949Z,24.00
2018-05-31T04:17:45.531Z,24.00
2018-05-31T04:20:15.123Z,23.90
2018-05-31T04:22:44.890Z,23.80
2018-05-31T04:25:16.725Z,23.80
2018-05-31T04:27:47.340Z,23.80
2018-05-31T04:30:15.613Z,23.80
2018-05-31T04:32:44.036Z,23.80
2018-05-31T04:35:14.992Z,23.80
2018-05-31T04:37:46.384Z,23.80
2018-05-31T04:40:14.695Z,23.80
2018-05-31T04:42:45.036Z,23.80
2018-05-31T04:45:13.413Z,23.80
2018-05-31T04:47:41.703Z,23.80
2018-05-31T04:50:10.015Z,23.80
2018-05-31T04:52:38.329Z,23.70
2018-05-31T04:55:06.633Z,23.70
2018-05-31T04:57:35.675Z,23.70
2018-05-31T05:00:03.956Z,23.80
2018-05-31T05:02:32.249Z,23.80
2018-05-31T05:05:00.543Z,23.80
2018-05-31T05:07:28.852Z,23.80
2018-05-31T05:09:57.141Z,23.80
2018-05-31T05:12:25.412Z,23.80
2018-05-31T05:14:53.712Z,23.80
2018-05-31T05:17:22.148Z,23.80
2018-05-31T05:19:50.428Z,23.90
2018-05-31T05:22:18.788Z,23.90
2018-05-31T05:24:47.062Z,23.90
2018-05-31T05:27:15.360Z,23.90
2018-05-31T05:29:43.646Z,23.90
2018-05-31T05:32:12.000Z,23.90
2018-05-31T05:34:40.370Z,24.00
2018-05-31T05:37:08.660Z,24.00
2018-05-31T05:39:37.704Z,24.00
2018-05-31T05:42:05.996Z,24.00
2018-05-31T05:44:34.274Z,24.00
2018-05-31T05:47:02.575Z,24.00
2018-05-31T05:49:30.866Z,24.00
2018-05-31T05:51:59.915Z,24.00
2018-05-31T05:54:29.298Z,24.00
2018-05-31T05:56:57.624Z,24.00
2018-05-31T05:59:25.900Z,24.10
2018-05-31T06:01:54.313Z,24.10
2018-05-31T06:04:22.578Z,24.10
2018-05-31T06:06:51.022Z,24.10
2018-05-31T06:09:19.317Z,24.10
2018-05-31T06:11:47.587Z,24.10
2018-05-31T06:14:15.883Z,24.10
2018-05-31T06:16:44.183Z,24.20
2018-05-31T06:19:12.470Z,24.20
2018-05-31T06:21:40.779Z,24.30
2018-05-31T06:24:09.067Z,24.30
2018-05-31T06:26:37.359Z,24.30
2018-05-31T06:29:05.644Z,24.30
2018-05-31T06:31:33.955Z,24.30
2018-05-31T06:34:02.256Z,24.30
2018-05-31T06:36:30.535Z,24.30
2018-05-31T06:38:58.839Z,24.30
2018-05-31T06:41:27.158Z,24.20
2018-05-31T06:43:55.441Z,24.20
2018-05-31T06:46:23.735Z,24.10
2018-05-31T06:48:52.052Z,24.10
2018-05-31T06:51:20.453Z,24.20
2018-05-31T06:53:48.718Z,24.20
2018-05-31T06:56:17.970Z,24.20
2018-05-31T06:58:46.269Z,24.10
2018-05-31T07:01:14.685Z,24.10
2018-05-31T07:03:42.959Z,24.20
2018-05-31T07:06:11.254Z,24.20
2018-05-31T07:08:39.530Z,24.20
2018-05-31T07:11:08.207Z,24.20
2018-05-31T07:13:36.521Z,24.30
2018-05-31T07:16:04.798Z,24.30
2018-05-31T07:18:33.081Z,24.30
2018-05-31T07:21:01.387Z,24.30
2018-05-31T07:23:29.664Z,24.30
2018-05-31T07:25:58.211Z,24.30
2018-05-31T07:28:26.530Z,24.40
2018-05-31T07:30:54.796Z,24.40
2018-05-31T07:33:23.069Z,24.40
2018-05-31T07:35:51.361Z,24.40
2018-05-31T07:38:19.666Z,24.40
2018-05-31T07:40:47.967Z,24.40
2018-05-31T07:43:16.288Z,24.40
2018-05-31T07:45:44.687Z,24.40
2018-05-31T07:48:12.956Z,24.50
2018-05-31T07:50:41.260Z,24.40
2018-05-31T07:53:09.553Z,24.50
2018-05-31T07:55:37.825Z,24.50
2018-05-31T07:58:06.144Z,24.50
2018-05-31T08:00:34.422Z,24.50
2018-05-31T08:03:02.718Z,24.50
2018-05-31T08:05:31.805Z,24.50
2018-05-31T08:08:00.185Z,24.50
2018-05-31T08:10:28.528Z,24.50
2018-05-31T08:12:56.830Z,24.50
2018-05-31T08:15:25.326Z,24.50
2018-05-31T08:17:53.635Z,24.50
2018-05-31T08:20:22.683Z,24.50
2018-05-31T08:22:50.978Z,24.50
2018-05-31T08:25:19.255Z,24.70
2018-05-31T08:27:47.598Z,24.70
2018-05-31T08:30:15.920Z,24.70
2018-05-31T08:32:44.169Z,24.70
2018-05-31T08:35:12.480Z,24.70
2018-05-31T08:37:40.755Z,24.70
2018-05-31T08:40:09.147Z,24.70
2018-05-31T08:42:37.432Z,24.70
2018-05-31T08:45:05.734Z,24.70
2018-05-31T08:47:34.171Z,24.70
2018-05-31T08:50:03.256Z,24.70
2018-05-31T08:52:31.635Z,24.70
2018-05-31T08:54:59.979Z,24.70
2018-05-31T08:57:28.302Z,24.70
2018-05-31T08:59:56.786Z,24.70
2018-05-31T09:02:25.056Z,24.70
2018-05-31T09:04:54.129Z,24.70
2018-05-31T09:07:22.449Z,24.70
2018-05-31T09:09:50.733Z,24.60
2018-05-31T09:12:19.009Z,24.60
2018-05-31T09:14:47.306Z,24.70
2018-05-31T09:17:15.643Z,24.70
2018-05-31T09:19:44.690Z,24.60
2018-05-31T09:22:12.978Z,24.60
2018-05-31T09:24:41.265Z,24.60
2018-05-31T09:27:09.559Z,24.70
2018-05-31T09:29:37.837Z,24.70
2018-05-31T09:32:06.168Z,24.70
2018-05-31T09:34:34.467Z,24.70
2018-05-31T09:37:03.013Z,24.70
2018-05-31T09:39:31.419Z,24.70
2018-05-31T09:41:59.743Z,24.70
2018-05-31T09:44:28.792Z,24.70
2018-05-31T09:46:57.072Z,24.70
2018-05-31T09:49:25.347Z,24.70
2018-05-31T09:51:53.627Z,24.70
2018-05-31T09:54:21.909Z,24.70
2018-05-31T09:56:50.447Z,24.70
2018-05-31T09:59:18.740Z,24.70
2018-05-31T10:01:47.023Z,24.70
2018-05-31T10:04:16.100Z,24.70
2018-05-31T10:06:44.370Z,24.70
2018-05-31T10:09:12.648Z,24.70
2018-05-31T10:11:40.940Z,24.70
2018-05-31T10:14:09.268Z,24.70
2018-05-31T10:16:37.543Z,24.70
2018-05-31T10:19:05.850Z,24.70
2018-05-31T10:21:34.137Z,24.70
2018-05-31T10:24:02.590Z,24.70
2018-05-31T10:26:30.876Z,24.70
2018-05-31T10:28:59.364Z,24.70
2018-05-31T10:31:27.656Z,24.70
2018-05-31T10:33:55.948Z,24.80
2018-05-31T10:36:24.233Z,24.70
2018-05-31T10:38:52.510Z,24.80
2018-05-31T10:41:20.808Z,24.80
2018-05-31T10:43:49.088Z,24.80
2018-05-31T10:46:17.468Z,24.80
2018-05-31T10:48:45.750Z,24.80
2018-05-31T10:51:14.025Z,24.80
2018-05-31T10:53:42.520Z,24.80
2018-05-31T10:56:10.798Z,24.80
2018-05-31T10:58:39.961Z,24.80
2018-05-31T11:01:08.243Z,24.80
2018-05-31T11:03:36.537Z,24.80
2018-05-31T11:06:04.878Z,24.80
2018-05-31T11:08:33.216Z,24.80
2018-05-31T11:11:01.456Z,24.80
2018-05-31T11:13:29.757Z,24.80
2018-05-31T11:15:58.052Z,24.80
2018-05-31T11:18:26.342Z,24.80
2018-05-31T11:20:55.376Z,24.80
2018-05-31T11:23:23.690Z,24.90
2018-05-31T11:25:52.362Z,24.80
2018-05-31T11:28:20.644Z,24.80
2018-05-31T11:30:48.942Z,24.80
2018-05-31T11:33:17.214Z,24.80
2018-05-31T11:35:45.529Z,24.80
2018-05-31T11:38:13.835Z,24.80
2018-05-31T11:40:42.108Z,24.80
2018-05-31T11:43:10.384Z,24.80
2018-05-31T11:45:38.789Z,24.80
2018-05-31T11:48:07.105Z,24.80
2018-05-31T11:50:35.849Z,24.80
2018-05-31T11:53:04.133Z,24.80
2018-05-31T11:55:32.412Z,24.80
2018-05-31T11:58:00.702Z,24.80
2018-05-31T12:00:29.048Z,24.80
2018-05-31T12:02:57.430Z,24.80
2018-05-31T12:05:25.704Z,24.90
2018-05-31T12:07:54.189Z,24.90
2018-05-31T12:10:22.494Z,24.90
2018-05-31T12:12:51.539Z,24.80
2018-05-31T12:15:19.833Z,24.90
2018-05-31T12:17:48.102Z,24.90
2018-05-31T12:20:16.382Z,24.90
2018-05-31T12:22:44.667Z,24.90
2018-05-31T12:25:12.931Z,24.90
2018-05-31T12:27:41.314Z,24.90
2018-05-31T12:30:09.607Z,24.90
2018-05-31T12:32:37.883Z,24.90
2018-05-31T12:35:06.385Z,24.90
2018-05-31T12:37:35.422Z,24.90
2018-05-31T12:40:03.706Z,24.90
2018-05-31T12:42:32.390Z,24.90
2018-05-31T12:45:00.661Z,24.90
2018-05-31T12:47:28.935Z,24.90
2018-05-31T12:49:57.227Z,24.90
2018-05-31T12:52:25.540Z,24.90
2018-05-31T12:54:53.807Z,24.90
2018-05-31T12:57:22.120Z,24.90
2018-05-31T13:09:30.442Z,24.90
2018-05-31T13:11:59.626Z,25.00
2018-05-31T13:14:27.901Z,24.90
2018-05-31T13:16:56.224Z,24.90
2018-05-31T13:19:24.578Z,24.90
2018-05-31T13:21:52.968Z,24.90
2018-05-31T13:24:21.262Z,24.90
2018-05-31T13:26:49.696Z,24.90
2018-05-31T13:29:17.998Z,24.90
2018-05-31T13:31:46.254Z,24.90
2018-05-31T13:34:14.550Z,24.90
2018-05-31T13:36:42.846Z,24.90
2018-05-31T13:39:11.115Z,25.00
2018-05-31T13:41:39.402Z,25.00
2018-05-31T13:44:07.669Z,25.00
2018-05-31T13:46:35.933Z,25.00
2018-05-31T13:49:04.355Z,25.00
2018-05-31T13:51:32.645Z,25.00
2018-05-31T13:54:00.933Z,25.00
2018-05-31T13:56:29.219Z,25.00
2018-05-31T13:58:57.515Z,25.00
2018-05-31T14:01:25.797Z,25.00
2018-05-31T14:03:54.088Z,25.00
2018-05-31T14:06:22.572Z,25.00
2018-05-31T14:08:50.854Z,25.00
2018-05-31T14:11:19.132Z,25.00
2018-05-31T14:13:47.410Z,25.00
2018-05-31T14:16:15.716Z,25.00
2018-05-31T14:18:43.988Z,25.00
2018-05-31T14:21:12.260Z,25.00
2018-05-31T14:23:40.559Z,25.10
2018-05-31T14:26:08.988Z,25.00
2018-05-31T14:28:37.286Z,25.00
2018-05-31T14:31:05.615Z,25.00
2018-05-31T14:33:33.905Z,25.00
2018-05-31T14:36:02.209Z,25.00
2018-05-31T14:38:30.562Z,25.00
2018-05-31T14:40:58.849Z,25.00
2018-05-31T14:43:27.122Z,25.10
2018-05-31T14:45:55.416Z,25.00
2018-05-31T14:48:23.678Z,25.00
2018-05-31T14:50:52.184Z,25.00
2018-05-31T14:53:20.457Z,25.10
2018-05-31T14:55:49.511Z,25.10
2018-05-31T14:58:17.778Z,25.10
2018-05-31T15:00:46.047Z,25.10
2018-05-31T15:03:14.342Z,25.00
2018-05-31T15:05:42.755Z,25.10
2018-05-31T15:08:11.035Z,25.10
2018-05-31T15:10:39.308Z,25.10
2018-05-31T15:13:07.597Z,25.10
2018-05-31T15:15:35.899Z,25.10
2018-05-31T15:18:04.327Z,25.10
2018-05-31T15:20:32.599Z,25.10
2018-05-31T15:23:00.891Z,25.10
2018-05-31T15:25:29.164Z,25.10
2018-05-31T15:27:57.451Z,25.10
2018-05-31T15:30:25.933Z,25.10
2018-05-31T15:32:54.206Z,25.10
2018-05-31T15:35:22.490Z,25.10
2018-05-31T15:37:50.763Z,25.10
2018-05-31T15:40:19.044Z,25.10
2018-05-31T15:42:47.706Z,25.10
2018-05-31T15:45:15.991Z,25.10
2018-05-31T15:47:44.271Z,25.10
2018-05-31T15:50:12.562Z,25.10
2018-05-31T15:52:40.829Z,25.10
2018-05-31T15:55:09.118Z,25.10
2018-05-31T15:57:37.386Z,25.10
2018-05-31T16:00:05.664Z,25.10
2018-05-31T16:02:33.952Z,25.10
2018-05-31T16:05:02.244Z,25.10
2018-05-31T16:07:31.303Z,25.10
2018-05-31T16:09:59.566Z,25.10
2018-05-31T16:12:27.836Z,25.10
2018-05-31T16:14:56.122Z,25.10
2018-05-31T16:17:24.404Z,25.10
2018-05-31T16:19:52.671Z,25.10
2018-05-31T16:22:20.961Z,25.10
2018-05-31T16:24:49.279Z,25.10
2018-05-31T16:27:17.527Z,25.10
2018-05-31T16:29:45.798Z,25.10
2018-05-31T16:32:14.102Z,25.10
2018-05-31T16:34:43.160Z,25.10
2018-05-31T16:37:11.414Z,25.10
2018-05-31T16:39:39.680Z,25.10
2018-05-31T16:42:07.957Z,25.10
2018-05-31T16:44:36.228Z,25.10
2018-05-31T16:47:04.491Z,25.10
2018-05-31T16:49:32.764Z,25.10
2018-05-31T16:52:01.794Z,25.20
2018-05-31T16:54:30.061Z,25.10
2018-05-31T16:56:58.525Z,25.10
2018-05-31T16:59:30.102Z,25.20
2018-05-31T17:02:00.930Z,25.20
2018-05-31T17:04:35.510Z,25.20
2018-05-31T17:07:04.206Z,25.20
2018-05-31T17:09:32.467Z,25.20
2018-05-31T17:12:01.228Z,25.10
2018-05-31T17:14:33.645Z,25.10
2018-05-31T17:17:02.230Z,25.10
2018-05-31T17:19:32.091Z,25.20
2018-05-31T17:22:01.447Z,25.10
2018-05-31T17:24:30.490Z,25.10
2018-05-31T17:26:58.763Z,25.10
2018-05-31T17:29:38.966Z,25.10
2018-05-31T17:32:16.116Z,25.10
2018-05-31T17:34:44.529Z,25.10
2018-05-31T17:37:14.428Z,25.20
2018-05-31T17:39:46.051Z,25.20
2018-05-31T17:42:14.326Z,25.20
2018-05-31T17:44:42.619Z,25.20
2018-05-31T17:47:11.054Z,25.20
2018-05-31T17:49:39.409Z,25.20
2018-05-31T17:52:07.700Z,25.20
2018-05-31T17:54:36.147Z,25.20
2018-05-31T17:57:04.415Z,25.20
2018-05-31T18:14:30.875Z,25.10
2018-05-31T18:16:59.166Z,25.10
2018-05-31T18:19:28.210Z,25.10
2018-05-31T18:21:56.486Z,25.10
2018-05-31T18:24:24.787Z,25.10
2018-05-31T18:26:53.080Z,25.10
2018-05-31T18:29:21.362Z,25.10
2018-05-31T18:31:49.634Z,25.10
2018-05-31T18:34:17.920Z,25.10
2018-05-31T18:36:46.216Z,25.00
2018-05-31T18:39:14.530Z,25.10
2018-05-31T18:41:42.810Z,25.00
2018-05-31T18:44:11.101Z,25.00
2018-05-31T18:46:39.434Z,25.00
2018-05-31T18:49:08.454Z,25.00
2018-05-31T18:51:36.753Z,25.00
2018-05-31T18:54:05.059Z,25.00
2018-05-31T18:56:34.227Z,25.00
2018-05-31T18:59:02.525Z,25.10
2018-05-31T19:01:30.811Z,25.10
2018-05-31T19:03:59.087Z,25.10
2018-05-31T19:06:28.130Z,25.10
2018-05-31T19:08:56.546Z,25.10
2018-05-31T19:11:24.819Z,25.10
2018-05-31T19:13:58.020Z,25.10
2018-05-31T19:16:26.298Z,25.10
2018-05-31T19:19:00.176Z,25.10
2018-05-31T19:21:28.448Z,25.10
2018-05-31T19:23:56.862Z,25.10
2018-05-31T19:26:25.171Z,25.10
2018-05-31T19:28:53.451Z,25.10
2018-05-31T19:31:21.746Z,25.10
2018-05-31T19:33:50.192Z,25.10
2018-05-31T19:36:24.162Z,25.10
2018-05-31T19:38:53.806Z,25.10
2018-05-31T19:41:22.896Z,25.10
2018-05-31T19:43:56.912Z,25.20
2018-05-31T19:46:25.178Z,25.20
2018-05-31T19:48:53.475Z,25.20
2018-05-31T19:51:28.196Z,25.20
2018-05-31T19:53:57.241Z,25.20
2018-05-31T19:56:25.522Z,25.20
2018-05-31T19:58:59.481Z,25.20
2018-05-31T20:01:35.041Z,25.20
2018-05-31T20:04:04.084Z,25.20
2018-05-31T20:06:32.367Z,25.20
2018-05-31T20:09:00.910Z,25.20
2018-05-31T20:11:29.135Z,25.20
2018-05-31T20:13:57.434Z,25.20
2018-05-31T20:16:25.723Z,25.20
2018-05-31T20:18:54.802Z,25.20
2018-05-31T20:21:23.060Z,25.20
2018-05-31T20:23:51.435Z,25.20
2018-05-31T20:26:19.763Z,25.30
2018-05-31T20:28:48.054Z,25.40
2018-05-31T20:31:18.077Z,25.40
2018-05-31T20:33:46.356Z,25.50
2018-05-31T20:36:15.453Z,25.60
2018-05-31T20:38:43.753Z,25.60
2018-05-31T20:41:12.022Z,25.70
2018-05-31T20:43:40.304Z,25.80
2018-05-31T20:46:08.573Z,25.80
2018-05-31T20:48:37.068Z,25.90
2018-05-31T20:51:05.332Z,26.00
2018-05-31T20:53:33.601Z,26.00
2018-05-31T20:56:01.904Z,26.00
2018-05-31T20:58:30.180Z,25.90
2018-05-31T21:00:58.956Z,25.80
2018-05-31T21:03:27.227Z,25.80
2018-05-31T21:05:55.711Z,25.70
2018-05-31T21:08:23.982Z,25.70
2018-05-31T21:10:52.258Z,25.60
2018-05-31T21:13:20.553Z,25.60
2018-05-31T21:15:48.831Z,25.50
2018-05-31T21:18:17.102Z,25.50
2018-05-31T21:20:45.393Z,25.50
2018-05-31T21:23:13.669Z,25.40
2018-05-31T21:25:41.947Z,25.40
2018-05-31T21:28:10.249Z,25.40
2018-05-31T21:30:38.510Z,25.40
2018-05-31T21:33:07.553Z,25.30
2018-05-31T21:35:35.873Z,25.30
2018-05-31T21:38:04.097Z,25.30
2018-05-31T21:40:32.375Z,25.30
2018-05-31T21:43:00.698Z,25.30
2018-05-31T21:45:28.971Z,25.30
2018-05-31T21:47:57.262Z,25.30
2018-05-31T21:50:25.560Z,25.20
2018-05-31T21:52:54.619Z,25.20
2018-05-31T21:55:23.673Z,25.20
2018-05-31T21:57:51.942Z,25.20
2018-05-31T22:00:41.525Z,25.20
2018-05-31T22:03:09.800Z,25.20
2018-05-31T22:05:38.118Z,25.20
2018-05-31T22:08:06.382Z,25.20
2018-05-31T22:10:34.634Z,25.20
2018-05-31T22:13:03.147Z,25.20
2018-05-31T22:15:31.802Z,25.10
2018-05-31T22:18:00.083Z,25.10
2018-05-31T22:20:28.355Z,25.10
2018-05-31T22:22:56.783Z,25.10
2018-05-31T22:25:25.051Z,25.10
2018-05-31T22:27:53.464Z,25.10
2018-05-31T22:30:22.506Z,25.10
2018-05-31T22:32:50.787Z,25.10
2018-05-31T22:35:19.073Z,25.10
2018-05-31T22:37:47.347Z,25.10
2018-05-31T22:40:15.619Z,25.10
2018-05-31T22:42:43.921Z,25.10
2018-05-31T22:45:12.149Z,25.10
2018-05-31T22:47:40.438Z,25.10
2018-05-31T22:50:08.708Z,25.10
2018-05-31T22:52:37.219Z,25.10
2018-05-31T22:55:05.502Z,25.10
2018-05-31T22:57:33.914Z,25.10
2018-05-31T23:00:02.195Z,25.10
2018-05-31T23:02:30.267Z,25.10
2018-05-31T23:04:58.543Z,25.00
2018-05-31T23:07:26.840Z,25.00
2018-05-31T23:09:55.112Z,25.00
2018-05-31T23:12:23.388Z,25.00
2018-05-31T23:14:51.700Z,25.00
2018-05-31T23:17:19.963Z,25.00
2018-05-31T23:19:48.236Z,25.00
2018-05-31T23:22:16.519Z,25.00
2018-05-31T23:24:44.911Z,25.00
2018-05-31T23:27:13.202Z,25.00
2018-05-31T23:29:41.462Z,25.00
2018-05-31T23:32:09.732Z,25.00
2018-05-31T23:34:38.013Z,25.00
2018-05-31T23:37:06.326Z,25.00
2018-05-31T23:39:34.597Z,25.00
2018-05-31T23:42:02.866Z,25.00
2018-05-31T23:44:31.141Z,25.00
2018-05-31T23:46:59.431Z,25.00
2018-05-31T23:49:27.715Z,25.00
2018-05-31T23:51:56.752Z,25.00
2018-05-31T23:54:25.811Z,25.00
2018-05-31T23:56:54.070Z,25.00
2018-05-31T23:59:22.482Z,25.00
